Time,TemperatureF,DewpointF,PressureIn,WindDirection,WindDirectionDegrees,WindSpeedMPH,WindSpeedGustMPH,Humidity,HourlyPrecipIn,Conditions,Clouds,dailyrainin,SolarRadiationWatts/m^2,SoftwareType,DateUTC
2013-10-14 00:02:00,67.3,66.0,30.09,NE,36,0.0,0.0,96,0.00,,,0.00,0.0,meteohub,2013-10-14 04:02:00,
2013-10-14 00:03:00,67.3,66.0,30.09,North,11,0.0,0.0,96,0.00,,,0.00,0.0,meteohub,2013-10-14 04:03:00,
2013-10-14 00:09:00,67.6,66.4,30.09,East,85,1.0,1.0,96,0.00,,,0.00,0.0,meteohub,2013-10-14 04:09:00,
2013-10-14 00:12:00,67.6,66.4,30.08,East,85,0.0,1.0,96,0.00,,,0.00,0.0,meteohub,2013-10-14 04:12:00,
2013-10-14 00:17:00,67.6,66.4,30.08,East,85,0.0,2.0,96,0.00,,,0.00,0.0,meteohub,2013-10-14 04:17:00,
2013-10-14 00:22:00,67.8,66.6,30.08,WNW,292,0.0,2.0,96,0.00,,,0.00,0.0,meteohub,2013-10-14 04:22:00,
2013-10-14 00:27:00,67.6,66.2,30.08,WNW,292,0.0,0.0,95,0.00,,,0.00,0.0,meteohub,2013-10-14 04:27:00,
2013-10-14 00:31:00,67.5,66.0,30.08,WNW,292,0.0,0.0,95,0.00,,,0.00,0.0,meteohub,2013-10-14 04:31:00,
2013-10-14 00:37:00,67.3,65.8,30.08,WNW,292,0.0,0.0,95,0.00,,,0.00,0.0,meteohub,2013-10-14 04:37:00,
2013-10-14 00:47:00,66.7,65.5,30.08,WNW,292,0.0,0.0,96,0.00,,,0.00,0.0,meteohub,2013-10-14 04:47:00,
2013-10-14 00:53:00,66.6,65.3,30.07,WNW,292,0.0,0.0,96,0.00,,,0.00,0.0,meteohub,2013-10-14 04:53:00,
2013-10-14 00:59:00,66.6,65.7,30.07,WNW,292,0.0,0.0,97,0.00,,,0.00,0.0,meteohub,2013-10-14 04:59:00,
2013-10-14 01:05:00,66.6,65.7,30.07,WNW,292,0.0,0.0,97,0.00,,,0.00,0.0,meteohub,2013-10-14 05:05:00,
2013-10-14 01:12:00,66.6,65.7,30.07,WNW,292,0.0,0.0,97,0.00,,,0.00,0.0,meteohub,2013-10-14 05:12:00,
2013-10-14 01:17:00,66.4,65.1,30.07,WNW,292,0.0,0.0,96,0.00,,,0.00,0.0,meteohub,2013-10-14 05:17:00,
2013-10-14 01:22:00,66.0,65.1,30.07,WNW,292,0.0,0.0,97,0.00,,,0.00,0.0,meteohub,2013-10-14 05:22:00,
2013-10-14 01:37:00,65.7,64.8,30.07,WNW,292,0.0,0.0,97,0.00,,,0.00,0.0,meteohub,2013-10-14 05:37:00,
2013-10-14 01:42:00,65.7,64.8,30.07,WNW,292,0.0,0.0,97,0.00,,,0.00,0.0,meteohub,2013-10-14 05:42:00,
2013-10-14 01:47:00,65.5,64.6,30.07,WNW,292,0.0,0.0,97,0.00,,,0.00,0.0,meteohub,2013-10-14 05:47:00,
2013-10-14 01:52:00,65.5,64.6,30.06,WNW,292,0.0,0.0,97,0.00,,,0.00,0.0,meteohub,2013-10-14 05:52:00,
2013-10-14 01:58:00,65.1,64.2,30.07,WNW,292,0.0,0.0,97,0.00,,,0.00,0.0,meteohub,2013-10-14 05:58:00,
2013-10-14 02:04:00,64.9,64.0,30.06,WNW,292,0.0,0.0,97,0.00,,,0.00,0.0,meteohub,2013-10-14 06:04:00,
2013-10-14 02:11:00,64.8,63.9,30.06,WNW,292,0.0,0.0,97,0.00,,,0.00,0.0,meteohub,2013-10-14 06:11:00,
2013-10-14 02:17:00,64.6,63.7,30.07,WNW,292,0.0,0.0,97,0.00,,,0.00,0.0,meteohub,2013-10-14 06:17:00,
2013-10-14 02:23:00,64.6,63.7,30.06,WNW,292,0.0,0.0,97,0.00,,,0.00,0.0,meteohub,2013-10-14 06:23:00,
2013-10-14 02:29:00,64.0,63.1,30.07,WNW,292,0.0,0.0,97,0.00,,,0.00,0.0,meteohub,2013-10-14 06:29:00,
2013-10-14 02:35:00,63.9,63.0,30.06,WNW,292,0.0,0.0,97,0.00,,,0.00,0.0,meteohub,2013-10-14 06:35:00,
2013-10-14 02:42:00,63.7,62.8,30.06,WNW,292,0.0,0.0,97,0.00,,,0.00,0.0,meteohub,2013-10-14 06:42:00,
2013-10-14 02:47:00,63.7,62.8,30.07,WNW,292,0.0,0.0,97,0.00,,,0.00,0.0,meteohub,2013-10-14 06:47:00,
2013-10-14 02:54:00,63.7,62.8,30.06,WNW,292,0.0,0.0,97,0.00,,,0.00,0.0,meteohub,2013-10-14 06:54:00,
2013-10-14 03:00:00,63.3,62.4,30.06,WNW,292,0.0,0.0,97,0.00,,,0.00,0.0,meteohub,2013-10-14 07:00:00,
2013-10-14 03:06:00,63.5,63.0,30.06,WNW,292,0.0,0.0,98,0.00,,,0.00,0.0,meteohub,2013-10-14 07:06:00,
2013-10-14 03:12:00,63.5,63.0,30.06,WNW,292,0.0,0.0,98,0.00,,,0.00,0.0,meteohub,2013-10-14 07:12:00,
2013-10-14 03:19:00,63.3,62.4,30.06,WNW,292,0.0,0.0,97,0.00,,,0.00,0.0,meteohub,2013-10-14 07:19:00,
2013-10-14 03:25:00,63.1,62.2,30.06,WNW,292,0.0,0.0,97,0.00,,,0.00,0.0,meteohub,2013-10-14 07:25:00,
2013-10-14 03:31:00,63.0,62.1,30.06,WNW,292,0.0,0.0,97,0.00,,,0.00,0.0,meteohub,2013-10-14 07:31:00,
2013-10-14 03:37:00,62.8,62.2,30.06,WNW,292,0.0,0.0,98,0.00,,,0.00,0.0,meteohub,2013-10-14 07:37:00,
2013-10-14 03:42:00,63.0,62.4,30.06,WNW,292,0.0,0.0,98,0.00,,,0.00,0.0,meteohub,2013-10-14 07:42:00,
2013-10-14 03:47:00,62.8,62.2,30.06,WNW,292,0.0,0.0,98,0.00,,,0.00,0.0,meteohub,2013-10-14 07:47:00,
2013-10-14 03:52:00,62.8,62.2,30.06,WNW,292,0.0,0.0,98,0.00,,,0.00,0.0,meteohub,2013-10-14 07:52:00,
2013-10-14 03:57:00,62.6,62.1,30.06,WNW,292,0.0,0.0,98,0.00,,,0.00,0.0,meteohub,2013-10-14 07:57:00,
2013-10-14 04:02:00,62.2,61.7,30.06,WNW,292,0.0,0.0,98,0.00,,,0.00,0.0,meteohub,2013-10-14 08:02:00,
2013-10-14 04:07:00,62.1,61.5,30.06,WNW,292,0.0,0.0,98,0.00,,,0.00,0.0,meteohub,2013-10-14 08:07:00,
2013-10-14 04:12:00,62.2,61.7,30.06,WNW,292,0.0,0.0,98,0.00,,,0.00,0.0,meteohub,2013-10-14 08:12:00,
2013-10-14 04:17:00,62.2,61.7,30.06,WNW,292,0.0,0.0,98,0.00,,,0.00,0.0,meteohub,2013-10-14 08:17:00,
2013-10-14 04:24:00,62.4,61.9,30.06,WNW,292,0.0,0.0,98,0.00,,,0.00,0.0,meteohub,2013-10-14 08:24:00,
2013-10-14 04:30:00,62.6,62.1,30.06,WNW,292,0.0,0.0,98,0.00,,,0.00,0.0,meteohub,2013-10-14 08:30:00,
2013-10-14 04:36:00,62.8,62.2,30.06,WNW,292,0.0,0.0,98,0.00,,,0.00,0.0,meteohub,2013-10-14 08:36:00,
2013-10-14 04:42:00,63.1,62.6,30.06,NE,39,0.0,0.0,98,0.00,,,0.00,0.0,meteohub,2013-10-14 08:42:00,
2013-10-14 04:48:00,63.1,62.6,30.06,NE,39,0.0,0.0,98,0.00,,,0.00,0.0,meteohub,2013-10-14 08:48:00,
2013-10-14 04:55:00,63.1,62.6,30.06,NE,39,0.0,0.0,98,0.00,,,0.00,0.0,meteohub,2013-10-14 08:55:00,
2013-10-14 05:01:00,63.1,62.6,30.06,NE,39,0.0,0.0,98,0.00,,,0.00,0.0,meteohub,2013-10-14 09:01:00,
2013-10-14 05:07:00,63.0,62.4,30.05,NE,39,0.0,0.0,98,0.00,,,0.00,0.0,meteohub,2013-10-14 09:07:00,
2013-10-14 05:12:00,62.8,62.2,30.06,NE,39,0.0,0.0,98,0.00,,,0.00,0.0,meteohub,2013-10-14 09:12:00,
2013-10-14 05:17:00,62.6,61.7,30.06,NE,39,0.0,0.0,97,0.00,,,0.00,0.0,meteohub,2013-10-14 09:17:00,
2013-10-14 05:22:00,62.4,61.9,30.06,NE,39,0.0,0.0,98,0.00,,,0.00,0.0,meteohub,2013-10-14 09:22:00,
2013-10-14 05:27:00,62.4,61.9,30.06,NE,39,0.0,0.0,98,0.00,,,0.00,0.0,meteohub,2013-10-14 09:27:00,
2013-10-14 05:32:00,62.1,61.5,30.05,NE,39,0.0,0.0,98,0.00,,,0.00,0.0,meteohub,2013-10-14 09:32:00,
2013-10-14 05:37:00,62.1,61.5,30.05,NE,39,0.0,0.0,98,0.00,,,0.00,0.0,meteohub,2013-10-14 09:37:00,
2013-10-14 05:42:00,61.9,61.3,30.06,NE,39,0.0,0.0,98,0.00,,,0.00,0.0,meteohub,2013-10-14 09:42:00,
2013-10-14 05:47:00,61.9,61.3,30.05,NE,39,0.0,0.0,98,0.00,,,0.00,0.0,meteohub,2013-10-14 09:47:00,
2013-10-14 05:52:00,61.5,61.0,30.06,NE,39,0.0,0.0,98,0.00,,,0.00,0.0,meteohub,2013-10-14 09:52:00,
2013-10-14 05:57:00,61.9,61.3,30.06,NE,40,0.0,0.0,98,0.00,,,0.00,0.0,meteohub,2013-10-14 09:57:00,
2013-10-14 06:02:00,61.9,61.3,30.06,NE,40,0.0,0.0,98,0.00,,,0.00,0.0,meteohub,2013-10-14 10:02:00,
2013-10-14 06:07:00,62.2,61.7,30.06,ESE,108,0.0,0.0,98,0.00,,,0.00,0.0,meteohub,2013-10-14 10:07:00,
2013-10-14 06:12:00,62.2,61.7,30.06,ESE,108,0.0,0.0,98,0.00,,,0.00,0.0,meteohub,2013-10-14 10:12:00,
2013-10-14 06:17:00,62.2,61.7,30.05,ESE,108,0.0,0.0,98,0.00,,,0.00,0.0,meteohub,2013-10-14 10:17:00,
2013-10-14 06:22:00,62.2,61.7,30.06,ESE,109,0.0,0.0,98,0.00,,,0.00,0.0,meteohub,2013-10-14 10:22:00,
2013-10-14 06:27:00,62.1,61.5,30.06,ESE,108,0.0,0.0,98,0.00,,,0.00,0.0,meteohub,2013-10-14 10:27:00,
2013-10-14 06:32:00,62.1,61.5,30.06,ESE,108,0.0,0.0,98,0.00,,,0.00,0.0,meteohub,2013-10-14 10:32:00,
2013-10-14 06:37:00,61.9,61.3,30.06,ESE,108,0.0,0.0,98,0.00,,,0.00,0.0,meteohub,2013-10-14 10:37:00,
2013-10-14 06:43:00,61.9,61.3,30.06,ESE,108,0.0,0.0,98,0.00,,,0.00,0.0,meteohub,2013-10-14 10:43:00,
2013-10-14 06:49:00,61.9,61.3,30.06,ESE,108,0.0,0.0,98,0.00,,,0.00,0.0,meteohub,2013-10-14 10:49:00,
2013-10-14 06:55:00,61.7,61.2,30.06,ENE,63,0.0,0.0,98,0.00,,,0.00,0.0,meteohub,2013-10-14 10:55:00,
2013-10-14 07:01:00,61.7,61.2,30.06,ENE,63,0.0,0.0,98,0.00,,,0.00,0.0,meteohub,2013-10-14 11:01:00,
2013-10-14 07:07:00,61.5,61.0,30.07,ENE,63,0.0,0.0,98,0.00,,,0.00,0.0,meteohub,2013-10-14 11:07:00,
2013-10-14 07:12:00,61.9,61.3,30.07,ENE,63,0.0,0.0,98,0.00,,,0.00,0.0,meteohub,2013-10-14 11:12:00,
2013-10-14 07:17:00,61.5,61.0,30.07,ENE,63,0.0,0.0,98,0.00,,,0.00,0.0,meteohub,2013-10-14 11:17:00,
2013-10-14 07:22:00,61.5,61.0,30.07,ENE,63,0.0,0.0,98,0.00,,,0.00,0.0,meteohub,2013-10-14 11:22:00,
2013-10-14 07:27:00,61.3,60.8,30.07,ENE,63,0.0,0.0,98,0.00,,,0.00,0.0,meteohub,2013-10-14 11:27:00,
2013-10-14 07:32:00,61.3,60.8,30.08,ENE,63,0.0,0.0,98,0.00,,,0.00,0.0,meteohub,2013-10-14 11:32:00,
2013-10-14 07:37:00,61.3,60.8,30.08,NNE,24,0.0,0.0,98,0.00,,,0.00,5.0,meteohub,2013-10-14 11:37:00,
2013-10-14 07:42:00,61.9,61.3,30.08,NE,46,0.0,0.0,98,0.00,,,0.00,9.0,meteohub,2013-10-14 11:42:00,
2013-10-14 07:47:00,61.9,61.3,30.08,NE,34,0.0,0.0,98,0.00,,,0.00,11.0,meteohub,2013-10-14 11:47:00,
2013-10-14 07:52:00,62.1,61.5,30.08,NE,51,0.0,0.0,98,0.00,,,0.00,14.0,meteohub,2013-10-14 11:52:00,
2013-10-14 07:57:00,62.4,62.1,30.08,NNE,20,0.0,0.0,99,0.00,,,0.00,16.0,meteohub,2013-10-14 11:57:00,
2013-10-14 08:03:00,62.6,62.2,30.08,North,355,0.0,2.0,99,0.00,,,0.00,21.0,meteohub,2013-10-14 12:03:00,
2013-10-14 08:09:00,63.0,62.6,30.08,NNE,25,1.0,2.0,99,0.00,,,0.00,26.0,meteohub,2013-10-14 12:09:00,
2013-10-14 08:15:00,63.3,62.8,30.08,NNE,16,0.0,3.0,98,0.00,,,0.00,30.0,meteohub,2013-10-14 12:15:00,
2013-10-14 08:22:00,63.7,63.3,30.09,NE,39,3.0,3.0,99,0.00,,,0.00,35.0,meteohub,2013-10-14 12:22:00,
2013-10-14 08:27:00,63.9,63.5,30.09,NE,45,0.0,3.0,99,0.00,,,0.00,37.0,meteohub,2013-10-14 12:27:00,
2013-10-14 08:32:00,64.0,63.7,30.09,NNE,18,1.0,3.0,99,0.00,,,0.00,35.0,meteohub,2013-10-14 12:32:00,
2013-10-14 08:37:00,64.4,64.0,30.09,NNW,327,1.0,3.0,99,0.00,,,0.00,39.0,meteohub,2013-10-14 12:37:00,
2013-10-14 08:42:00,64.8,64.4,30.09,NNW,335,0.0,3.0,99,0.00,,,0.00,39.0,meteohub,2013-10-14 12:42:00,
2013-10-14 08:47:00,64.9,64.6,30.09,NNE,22,1.0,3.0,99,0.00,,,0.00,44.0,meteohub,2013-10-14 12:47:00,
2013-10-14 08:52:00,65.3,64.9,30.10,NNW,333,0.0,3.0,99,0.00,,,0.00,51.0,meteohub,2013-10-14 12:52:00,
2013-10-14 08:57:00,65.8,65.5,30.10,SW,229,1.0,3.0,99,0.00,,,0.00,105.0,meteohub,2013-10-14 12:57:00,
2013-10-14 09:02:00,66.2,65.7,30.10,NE,52,1.0,2.0,98,0.00,,,0.00,102.0,meteohub,2013-10-14 13:02:00,
2013-10-14 09:07:00,66.6,65.7,30.10,ENE,70,1.0,2.0,97,0.00,,,0.00,104.0,meteohub,2013-10-14 13:07:00,
2013-10-14 09:12:00,66.7,65.3,30.10,NNE,26,2.0,2.0,95,0.00,,,0.00,88.0,meteohub,2013-10-14 13:12:00,
2013-10-14 09:17:00,66.9,65.5,30.10,NE,55,2.0,4.0,95,0.00,,,0.00,84.0,meteohub,2013-10-14 13:17:00,
2013-10-14 09:22:00,67.1,65.7,30.10,NE,49,0.0,4.0,95,0.00,,,0.00,77.0,meteohub,2013-10-14 13:22:00,
2013-10-14 09:27:00,67.1,65.7,30.10,NNE,33,0.0,4.0,95,0.00,,,0.00,109.0,meteohub,2013-10-14 13:27:00,
2013-10-14 09:32:00,67.3,65.8,30.10,NNE,22,2.0,4.0,95,0.00,,,0.00,79.0,meteohub,2013-10-14 13:32:00,
2013-10-14 09:37:00,67.3,65.5,30.10,NE,44,1.0,4.0,94,0.00,,,0.00,98.0,meteohub,2013-10-14 13:37:00,
2013-10-14 09:42:00,67.5,66.0,30.10,NNW,331,1.0,4.0,95,0.00,,,0.00,169.0,meteohub,2013-10-14 13:42:00,
2013-10-14 09:47:00,67.8,66.0,30.10,NE,43,1.0,4.0,94,0.00,,,0.00,156.0,meteohub,2013-10-14 13:47:00,
2013-10-14 09:54:00,68.0,65.8,30.10,ENE,57,2.0,4.0,93,0.00,,,0.00,83.0,meteohub,2013-10-14 13:54:00,
2013-10-14 10:00:00,67.8,66.0,30.10,NE,44,1.0,4.0,94,0.00,,,0.00,102.0,meteohub,2013-10-14 14:00:00,
2013-10-14 10:07:00,68.0,66.2,30.10,NE,49,3.0,4.0,94,0.00,,,0.00,165.0,meteohub,2013-10-14 14:07:00,
2013-10-14 10:12:00,68.2,66.0,30.10,WNW,292,1.0,4.0,93,0.00,,,0.00,100.0,meteohub,2013-10-14 14:12:00,
2013-10-14 10:17:00,68.2,66.0,30.10,NNW,333,1.0,4.0,93,0.00,,,0.00,114.0,meteohub,2013-10-14 14:17:00,
2013-10-14 10:22:00,68.2,66.0,30.10,NE,54,2.0,4.0,93,0.00,,,0.00,76.0,meteohub,2013-10-14 14:22:00,
2013-10-14 10:27:00,68.0,65.8,30.10,NNE,13,1.0,4.0,93,0.00,,,0.00,105.0,meteohub,2013-10-14 14:27:00,
2013-10-14 10:32:00,68.2,66.0,30.10,NNE,27,2.0,4.0,93,0.00,,,0.00,116.0,meteohub,2013-10-14 14:32:00,
2013-10-14 10:37:00,68.2,66.0,30.10,North,11,2.0,4.0,93,0.00,,,0.00,100.0,meteohub,2013-10-14 14:37:00,
2013-10-14 10:42:00,68.2,65.8,30.10,NNE,32,1.0,5.0,92,0.00,,,0.00,121.0,meteohub,2013-10-14 14:42:00,
2013-10-14 10:47:00,68.4,66.2,30.10,NNW,344,0.0,5.0,93,0.00,,,0.00,116.0,meteohub,2013-10-14 14:47:00,
2013-10-14 10:52:00,68.5,66.2,30.10,NNE,27,2.0,5.0,92,0.00,,,0.00,109.0,meteohub,2013-10-14 14:52:00,
2013-10-14 10:57:00,68.5,66.2,30.10,ESE,111,1.0,5.0,92,0.00,,,0.00,105.0,meteohub,2013-10-14 14:57:00,
2013-10-14 11:02:00,68.5,66.2,30.09,NE,34,1.0,5.0,92,0.00,,,0.00,118.0,meteohub,2013-10-14 15:02:00,
2013-10-14 11:08:00,68.7,66.0,30.09,NNW,338,1.0,5.0,91,0.00,,,0.00,118.0,meteohub,2013-10-14 15:08:00,
2013-10-14 11:15:00,68.7,66.4,30.09,ENE,63,1.0,4.0,92,0.00,,,0.00,146.0,meteohub,2013-10-14 15:15:00,
2013-10-14 11:21:00,69.1,66.4,30.09,NNE,24,1.0,4.0,91,0.00,,,0.00,148.0,meteohub,2013-10-14 15:21:00,
2013-10-14 11:27:00,69.3,66.6,30.09,ENE,59,1.0,4.0,91,0.00,,,0.00,174.0,meteohub,2013-10-14 15:27:00,
2013-10-14 11:32:00,69.4,66.7,30.09,NNW,333,2.0,4.0,91,0.00,,,0.00,153.0,meteohub,2013-10-14 15:32:00,
2013-10-14 11:37:00,69.6,66.6,30.09,NNE,28,2.0,4.0,90,0.00,,,0.00,153.0,meteohub,2013-10-14 15:37:00,
2013-10-14 11:42:00,69.6,66.6,30.09,NNE,19,1.0,4.0,90,0.00,,,0.00,206.0,meteohub,2013-10-14 15:42:00,
2013-10-14 11:49:00,70.2,66.4,30.09,ENE,58,3.0,4.0,88,0.00,,,0.00,160.0,meteohub,2013-10-14 15:49:00,
2013-10-14 11:55:00,70.2,66.7,30.09,NNE,29,0.0,7.0,89,0.00,,,0.00,200.0,meteohub,2013-10-14 15:55:00,
2013-10-14 12:01:00,70.5,66.7,30.09,NNE,28,1.0,7.0,88,0.00,,,0.00,162.0,meteohub,2013-10-14 16:01:00,
2013-10-14 12:07:00,70.5,66.4,30.08,NE,34,1.0,7.0,87,0.00,,,0.00,185.0,meteohub,2013-10-14 16:07:00,
2013-10-14 12:12:00,70.5,66.4,30.08,NE,46,1.0,7.0,87,0.00,,,0.00,167.0,meteohub,2013-10-14 16:12:00,
2013-10-14 12:19:00,71.1,66.9,30.08,NNE,30,0.0,4.0,87,0.00,,,0.00,158.0,meteohub,2013-10-14 16:19:00,
2013-10-14 12:26:00,70.9,66.7,30.08,NE,38,2.0,4.0,87,0.00,,,0.00,132.0,meteohub,2013-10-14 16:26:00,
2013-10-14 12:32:00,70.7,66.4,30.08,North,350,2.0,5.0,86,0.00,,,0.00,176.0,meteohub,2013-10-14 16:32:00,
2013-10-14 12:38:00,70.5,66.2,30.08,NE,44,2.0,5.0,86,0.00,,,0.00,132.0,meteohub,2013-10-14 16:38:00,
2013-10-14 12:44:00,70.3,66.0,30.07,NNE,28,2.0,7.0,86,0.00,,,0.00,193.0,meteohub,2013-10-14 16:44:00,
2013-10-14 12:50:00,71.1,66.7,30.07,NNE,15,3.0,7.0,86,0.00,,,0.00,211.0,meteohub,2013-10-14 16:50:00,
2013-10-14 12:57:00,71.1,66.7,30.07,NNE,31,0.0,7.0,86,0.00,,,0.00,220.0,meteohub,2013-10-14 16:57:00,
2013-10-14 13:02:00,71.2,66.6,30.07,NW,307,1.0,7.0,85,0.00,,,0.00,199.0,meteohub,2013-10-14 17:02:00,
2013-10-14 13:07:00,71.2,66.6,30.07,North,350,2.0,6.0,85,0.00,,,0.00,169.0,meteohub,2013-10-14 17:07:00,
2013-10-14 13:12:00,71.2,66.9,30.07,NNW,346,1.0,6.0,86,0.00,,,0.00,294.0,meteohub,2013-10-14 17:12:00,
2013-10-14 13:17:00,72.3,67.3,30.06,NW,309,0.0,4.0,84,0.00,,,0.00,329.0,meteohub,2013-10-14 17:17:00,
2013-10-14 13:22:00,72.3,66.9,30.06,SE,128,2.0,4.0,83,0.00,,,0.00,197.0,meteohub,2013-10-14 17:22:00,
2013-10-14 13:27:00,72.1,66.7,30.06,ENE,57,1.0,4.0,83,0.00,,,0.00,204.0,meteohub,2013-10-14 17:27:00,
2013-10-14 13:32:00,72.1,66.7,30.06,NNE,14,2.0,4.0,83,0.00,,,0.00,401.0,meteohub,2013-10-14 17:32:00,
2013-10-14 13:37:00,72.7,66.9,30.06,ENE,65,3.0,4.0,82,0.00,,,0.00,237.0,meteohub,2013-10-14 17:37:00,
2013-10-14 13:42:00,72.7,66.9,30.05,WNW,292,1.0,4.0,82,0.00,,,0.00,211.0,meteohub,2013-10-14 17:42:00,
2013-10-14 13:47:00,72.3,66.2,30.05,NE,45,1.0,5.0,81,0.00,,,0.00,236.0,meteohub,2013-10-14 17:47:00,
2013-10-14 13:52:00,72.5,66.7,30.05,SW,215,1.0,5.0,82,0.00,,,0.00,348.0,meteohub,2013-10-14 17:52:00,
2013-10-14 13:57:00,73.0,66.6,30.05,ENE,71,2.0,5.0,80,0.00,,,0.00,327.0,meteohub,2013-10-14 17:57:00,
2013-10-14 14:02:00,73.6,66.7,30.04,NE,53,3.0,5.0,79,0.00,,,0.00,318.0,meteohub,2013-10-14 18:02:00,
2013-10-14 14:07:00,73.8,66.9,30.04,NE,52,4.0,6.0,79,0.00,,,0.00,253.0,meteohub,2013-10-14 18:07:00,
2013-10-14 14:14:00,73.6,66.4,30.04,ENE,60,1.0,6.0,78,0.00,,,0.00,246.0,meteohub,2013-10-14 18:14:00,
2013-10-14 14:20:00,73.6,66.7,30.04,NE,34,3.0,6.0,79,0.00,,,0.00,186.0,meteohub,2013-10-14 18:20:00,
2013-10-14 14:26:00,73.4,66.6,30.04,ENE,67,3.0,4.0,79,0.00,,,0.00,172.0,meteohub,2013-10-14 18:26:00,
2013-10-14 14:32:00,73.2,67.1,30.03,NE,36,1.0,4.0,81,0.00,,,0.00,271.0,meteohub,2013-10-14 18:32:00,
2013-10-14 14:38:00,73.8,67.6,30.03,NNE,17,0.0,7.0,81,0.00,,,0.00,244.0,meteohub,2013-10-14 18:38:00,
2013-10-14 14:44:00,73.8,66.4,30.03,NE,51,1.0,4.0,78,0.00,,,0.00,258.0,meteohub,2013-10-14 18:44:00,
2013-10-14 14:50:00,74.1,66.7,30.03,NNW,342,2.0,4.0,78,0.00,,,0.00,262.0,meteohub,2013-10-14 18:50:00,
2013-10-14 14:57:00,73.9,65.8,30.03,NE,49,1.0,6.0,76,0.00,,,0.00,207.0,meteohub,2013-10-14 18:57:00,
2013-10-14 15:03:00,73.8,66.0,30.03,NE,47,4.0,6.0,77,0.00,,,0.00,207.0,meteohub,2013-10-14 19:03:00,
2013-10-14 15:09:00,73.8,66.0,30.03,NNE,18,2.0,7.0,77,0.00,,,0.00,202.0,meteohub,2013-10-14 19:09:00,
2013-10-14 15:15:00,73.8,66.0,30.03,ENE,76,1.0,5.0,77,0.00,,,0.00,162.0,meteohub,2013-10-14 19:15:00,
2013-10-14 15:21:00,73.8,66.0,30.03,NE,42,0.0,5.0,77,0.00,,,0.00,142.0,meteohub,2013-10-14 19:21:00,
2013-10-14 15:27:00,73.8,66.4,30.03,NE,51,3.0,5.0,78,0.00,,,0.00,160.0,meteohub,2013-10-14 19:27:00,
2013-10-14 15:32:00,73.8,66.4,30.03,NNE,27,0.0,5.0,78,0.00,,,0.00,135.0,meteohub,2013-10-14 19:32:00,
2013-10-14 15:37:00,73.6,66.7,30.03,NE,41,0.0,3.0,79,0.00,,,0.00,139.0,meteohub,2013-10-14 19:37:00,
2013-10-14 15:42:00,73.2,66.4,30.03,NNW,341,0.0,3.0,79,0.00,,,0.00,123.0,meteohub,2013-10-14 19:42:00,
2013-10-14 15:47:00,73.2,66.7,30.03,NE,50,2.0,3.0,80,0.00,,,0.00,120.0,meteohub,2013-10-14 19:47:00,
2013-10-14 15:52:00,73.2,66.7,30.03,NNE,21,0.0,3.0,80,0.00,,,0.00,130.0,meteohub,2013-10-14 19:52:00,
2013-10-14 15:57:00,73.2,66.4,30.03,NNW,342,0.0,3.0,79,0.00,,,0.00,134.0,meteohub,2013-10-14 19:57:00,
2013-10-14 16:02:00,73.2,66.4,30.03,NNE,15,2.0,3.0,79,0.00,,,0.00,153.0,meteohub,2013-10-14 20:02:00,
2013-10-14 16:07:00,73.2,66.7,30.03,ENE,75,0.0,5.0,80,0.00,,,0.00,132.0,meteohub,2013-10-14 20:07:00,
2013-10-14 16:12:00,73.4,66.9,30.02,NNW,332,1.0,5.0,80,0.00,,,0.00,144.0,meteohub,2013-10-14 20:12:00,
2013-10-14 16:17:00,73.2,67.1,30.02,NNE,26,1.0,4.0,81,0.00,,,0.00,137.0,meteohub,2013-10-14 20:17:00,
2013-10-14 16:22:00,73.2,66.7,30.02,NW,323,2.0,4.0,80,0.00,,,0.00,151.0,meteohub,2013-10-14 20:22:00,
2013-10-14 16:27:00,73.2,66.7,30.02,NNE,14,0.0,4.0,80,0.00,,,0.00,118.0,meteohub,2013-10-14 20:27:00,
2013-10-14 16:32:00,73.2,66.7,30.02,WNW,290,1.0,4.0,80,0.00,,,0.00,109.0,meteohub,2013-10-14 20:32:00,
2013-10-14 16:37:00,73.0,66.6,30.02,WSW,248,0.0,3.0,80,0.00,,,0.00,123.0,meteohub,2013-10-14 20:37:00,
2013-10-14 16:42:00,73.0,66.6,30.02,NW,304,1.0,3.0,80,0.00,,,0.00,109.0,meteohub,2013-10-14 20:42:00,
2013-10-14 16:47:00,73.0,66.6,30.02,NE,44,1.0,4.0,80,0.00,,,0.00,76.0,meteohub,2013-10-14 20:47:00,
2013-10-14 16:52:00,72.9,66.4,30.02,SW,220,1.0,4.0,80,0.00,,,0.00,81.0,meteohub,2013-10-14 20:52:00,
2013-10-14 16:57:00,72.7,66.6,30.02,NNE,20,1.0,3.0,81,0.00,,,0.00,81.0,meteohub,2013-10-14 20:57:00,
2013-10-14 17:02:00,72.5,66.4,30.03,North,10,0.0,3.0,81,0.00,,,0.00,79.0,meteohub,2013-10-14 21:02:00,
2013-10-14 17:06:00,72.5,66.4,30.03,NNE,24,1.0,3.0,81,0.00,,,0.00,46.0,meteohub,2013-10-14 21:06:00,
2013-10-14 17:12:00,72.3,66.9,30.03,NNE,22,1.0,3.0,83,0.00,,,0.00,58.0,meteohub,2013-10-14 21:12:00,
2013-10-14 17:17:00,72.1,67.1,30.03,NNE,22,0.0,3.0,84,0.00,,,0.00,90.0,meteohub,2013-10-14 21:17:00,
2013-10-14 17:22:00,72.1,66.7,30.03,NE,54,1.0,3.0,83,0.00,,,0.00,53.0,meteohub,2013-10-14 21:22:00,
2013-10-14 17:27:00,71.8,66.7,30.04,NNE,31,4.0,4.0,84,0.00,,,0.00,33.0,meteohub,2013-10-14 21:27:00,
2013-10-14 17:32:00,71.2,66.9,30.03,NNE,15,2.0,4.0,86,0.00,,,0.00,67.0,meteohub,2013-10-14 21:32:00,
2013-10-14 17:37:00,70.7,66.9,30.04,NNE,22,0.0,5.0,88,0.00,,,0.00,54.0,meteohub,2013-10-14 21:37:00,
2013-10-14 17:42:00,70.5,66.7,30.04,North,5,0.0,5.0,88,0.00,,,0.00,58.0,meteohub,2013-10-14 21:42:00,
2013-10-14 17:47:00,70.5,66.7,30.04,ENE,66,0.0,4.0,88,0.00,,,0.00,47.0,meteohub,2013-10-14 21:47:00,
2013-10-14 17:52:00,70.5,66.7,30.03,NE,36,0.0,4.0,88,0.00,,,0.00,56.0,meteohub,2013-10-14 21:52:00,
2013-10-14 17:57:00,70.5,66.7,30.03,NNE,27,1.0,2.0,88,0.00,,,0.00,62.0,meteohub,2013-10-14 21:57:00,
2013-10-14 18:02:00,70.7,66.9,30.03,NNW,329,0.0,2.0,88,0.00,,,0.00,56.0,meteohub,2013-10-14 22:02:00,
2013-10-14 18:07:00,70.9,66.7,30.03,NE,54,0.0,3.0,87,0.00,,,0.00,51.0,meteohub,2013-10-14 22:07:00,
2013-10-14 18:12:00,70.9,66.7,30.03,NE,38,0.0,3.0,87,0.00,,,0.00,39.0,meteohub,2013-10-14 22:12:00,
2013-10-14 18:17:00,70.7,66.4,30.03,NE,42,0.0,3.0,86,0.00,,,0.00,26.0,meteohub,2013-10-14 22:17:00,
2013-10-14 18:22:00,70.5,66.2,30.03,North,11,2.0,3.0,86,0.00,,,0.00,25.0,meteohub,2013-10-14 22:22:00,
2013-10-14 18:27:00,70.5,66.2,30.03,WNW,301,1.0,3.0,86,0.00,,,0.00,12.0,meteohub,2013-10-14 22:27:00,
2013-10-14 18:32:00,70.3,66.0,30.03,NE,44,0.0,3.0,86,0.00,,,0.00,14.0,meteohub,2013-10-14 22:32:00,
2013-10-14 18:37:00,70.3,66.2,30.04,NE,44,0.0,3.0,87,0.00,,,0.00,19.0,meteohub,2013-10-14 22:37:00,
2013-10-14 18:42:00,70.2,66.0,30.04,NNW,333,0.0,3.0,87,0.00,,,0.00,7.0,meteohub,2013-10-14 22:42:00,
2013-10-14 18:47:00,70.2,66.0,30.04,NW,311,0.0,2.0,87,0.00,,,0.00,5.0,meteohub,2013-10-14 22:47:00,
2013-10-14 18:52:00,70.0,66.0,30.04,NE,45,0.0,2.0,87,0.00,,,0.00,0.0,meteohub,2013-10-14 22:52:00,
2013-10-14 18:57:00,70.0,66.0,30.04,NNE,28,0.0,4.0,87,0.00,,,0.00,0.0,meteohub,2013-10-14 22:57:00,
2013-10-14 19:02:00,70.0,66.0,30.04,NNW,329,2.0,4.0,87,0.00,,,0.00,0.0,meteohub,2013-10-14 23:02:00,
2013-10-14 19:07:00,70.0,66.0,30.03,East,84,0.0,4.0,87,0.00,,,0.00,0.0,meteohub,2013-10-14 23:07:00,
2013-10-14 19:12:00,69.8,65.8,30.03,NNE,30,0.0,4.0,87,0.00,,,0.00,0.0,meteohub,2013-10-14 23:12:00,
2013-10-14 19:17:00,69.8,65.8,30.04,NNW,345,1.0,3.0,87,0.00,,,0.00,0.0,meteohub,2013-10-14 23:17:00,
2013-10-14 19:22:00,69.6,65.7,30.03,East,80,0.0,3.0,87,0.00,,,0.00,0.0,meteohub,2013-10-14 23:22:00,
2013-10-14 19:27:00,69.6,65.7,30.03,ENE,78,0.0,2.0,87,0.00,,,0.00,0.0,meteohub,2013-10-14 23:27:00,
2013-10-14 19:32:00,69.6,65.8,30.03,NNE,15,1.0,2.0,88,0.00,,,0.00,0.0,meteohub,2013-10-14 23:32:00,
2013-10-14 19:37:00,69.4,65.7,30.04,NNE,30,1.0,3.0,88,0.00,,,0.00,0.0,meteohub,2013-10-14 23:37:00,
2013-10-14 19:42:00,69.3,65.5,30.04,North,355,2.0,3.0,88,0.00,,,0.00,0.0,meteohub,2013-10-14 23:42:00,
2013-10-14 19:47:00,69.3,65.5,30.03,NNW,334,0.0,4.0,88,0.00,,,0.00,0.0,meteohub,2013-10-14 23:47:00,
2013-10-14 19:52:00,69.1,65.7,30.03,North,0,1.0,4.0,89,0.00,,,0.00,0.0,meteohub,2013-10-14 23:52:00,
2013-10-14 19:59:00,69.1,65.7,30.03,NNE,24,3.0,4.0,89,0.00,,,0.00,0.0,meteohub,2013-10-14 23:59:00,
2013-10-14 20:05:00,68.9,65.5,30.04,NNE,28,2.0,6.0,89,0.00,,,0.00,0.0,meteohub,2013-10-15 00:05:00,
2013-10-14 20:11:00,68.7,65.3,30.04,ENE,61,1.0,6.0,89,0.00,,,0.00,0.0,meteohub,2013-10-15 00:11:00,
2013-10-14 20:17:00,68.7,65.7,30.04,NE,38,0.0,3.0,90,0.00,,,0.00,0.0,meteohub,2013-10-15 00:17:00,
2013-10-14 20:22:00,68.5,65.5,30.04,NW,314,1.0,3.0,90,0.00,,,0.00,0.0,meteohub,2013-10-15 00:22:00,
2013-10-14 20:27:00,68.5,65.5,30.04,NE,45,0.0,3.0,90,0.00,,,0.00,0.0,meteohub,2013-10-15 00:27:00,
2013-10-14 20:32:00,68.5,65.8,30.04,NW,315,1.0,3.0,91,0.00,,,0.00,0.0,meteohub,2013-10-15 00:32:00,
2013-10-14 20:37:00,68.5,65.8,30.04,NE,44,2.0,4.0,91,0.00,,,0.00,0.0,meteohub,2013-10-15 00:37:00,
2013-10-14 20:42:00,68.5,65.8,30.04,ENE,59,3.0,4.0,91,0.00,,,0.00,0.0,meteohub,2013-10-15 00:42:00,
2013-10-14 20:47:00,68.5,65.8,30.04,NNW,333,1.0,5.0,91,0.00,,,0.00,0.0,meteohub,2013-10-15 00:47:00,
2013-10-14 20:52:00,68.4,65.7,30.04,NNW,340,1.0,5.0,91,0.00,,,0.00,0.0,meteohub,2013-10-15 00:52:00,
2013-10-14 20:57:00,68.4,65.7,30.04,ENE,57,0.0,4.0,91,0.00,,,0.00,0.0,meteohub,2013-10-15 00:57:00,
2013-10-14 21:02:00,68.4,65.7,30.04,NE,34,0.0,4.0,91,0.00,,,0.00,0.0,meteohub,2013-10-15 01:02:00,
2013-10-14 21:07:00,68.4,65.7,30.04,NW,317,1.0,3.0,91,0.00,,,0.00,0.0,meteohub,2013-10-15 01:07:00,
2013-10-14 21:12:00,68.2,65.8,30.04,NNW,346,3.0,3.0,92,0.00,,,0.00,0.0,meteohub,2013-10-15 01:12:00,
2013-10-14 21:17:00,68.2,65.8,30.04,NNW,346,0.0,5.0,92,0.00,,,0.00,0.0,meteohub,2013-10-15 01:17:00,
2013-10-14 21:22:00,68.2,65.8,30.05,North,0,0.0,5.0,92,0.00,,,0.00,0.0,meteohub,2013-10-15 01:22:00,
2013-10-14 21:27:00,68.0,65.7,30.05,ENE,58,1.0,5.0,92,0.00,,,0.00,0.0,meteohub,2013-10-15 01:27:00,
2013-10-14 21:32:00,68.0,65.7,30.05,North,9,2.0,5.0,92,0.00,,,0.00,0.0,meteohub,2013-10-15 01:32:00,
2013-10-14 21:37:00,68.0,65.7,30.05,NNW,329,0.0,5.0,92,0.00,,,0.00,0.0,meteohub,2013-10-15 01:37:00,
2013-10-14 21:42:00,68.2,65.8,30.05,NNE,12,0.0,5.0,92,0.00,,,0.00,0.0,meteohub,2013-10-15 01:42:00,
2013-10-14 21:47:00,68.0,65.7,30.06,NE,38,1.0,5.0,92,0.00,,,0.00,0.0,meteohub,2013-10-15 01:47:00,
2013-10-14 21:52:00,68.0,65.7,30.06,NNE,22,1.0,5.0,92,0.00,,,0.00,0.0,meteohub,2013-10-15 01:52:00,
2013-10-14 21:59:00,68.0,65.7,30.06,NW,309,1.0,5.0,92,0.00,,,0.00,0.0,meteohub,2013-10-15 01:59:00,
2013-10-14 22:05:00,68.0,65.7,30.06,NNW,337,1.0,4.0,92,0.00,,,0.00,0.0,meteohub,2013-10-15 02:05:00,
2013-10-14 22:11:00,68.0,65.7,30.06,NNW,339,0.0,4.0,92,0.00,,,0.00,0.0,meteohub,2013-10-15 02:11:00,
2013-10-14 22:17:00,68.0,65.7,30.06,North,355,0.0,4.0,92,0.00,,,0.00,0.0,meteohub,2013-10-15 02:17:00,
2013-10-14 22:22:00,68.0,65.7,30.06,NW,311,3.0,4.0,92,0.00,,,0.00,0.0,meteohub,2013-10-15 02:22:00,
2013-10-14 22:27:00,68.0,65.7,30.06,NNE,32,1.0,4.0,92,0.00,,,0.00,0.0,meteohub,2013-10-15 02:27:00,
2013-10-14 22:32:00,68.0,65.7,30.05,NNE,24,2.0,4.0,92,0.00,,,0.00,0.0,meteohub,2013-10-15 02:32:00,
2013-10-14 22:39:00,67.8,65.5,30.06,North,0,1.0,5.0,92,0.00,,,0.00,0.0,meteohub,2013-10-15 02:39:00,
2013-10-14 22:45:00,67.8,65.5,30.06,East,80,2.0,4.0,92,0.00,,,0.00,0.0,meteohub,2013-10-15 02:45:00,
2013-10-14 22:51:00,67.8,65.5,30.06,NNE,30,0.0,4.0,92,0.00,,,0.00,0.0,meteohub,2013-10-15 02:51:00,
2013-10-14 22:57:00,67.8,65.5,30.05,West,281,1.0,3.0,92,0.00,,,0.00,0.0,meteohub,2013-10-15 02:57:00,
2013-10-14 23:02:00,67.8,65.5,30.05,WNW,284,0.0,3.0,92,0.00,,,0.00,0.0,meteohub,2013-10-15 03:02:00,
2013-10-14 23:07:00,67.8,65.5,30.05,NNE,17,0.0,4.0,92,0.00,,,0.00,0.0,meteohub,2013-10-15 03:07:00,
2013-10-14 23:13:00,67.8,65.5,30.05,NE,34,4.0,4.0,92,0.00,,,0.00,0.0,meteohub,2013-10-15 03:13:00,
2013-10-14 23:19:00,67.8,65.5,30.05,North,5,1.0,3.0,92,0.00,,,0.00,0.0,meteohub,2013-10-15 03:19:00,
2013-10-14 23:25:00,67.8,65.5,30.05,NNW,337,1.0,4.0,92,0.00,,,0.00,0.0,meteohub,2013-10-15 03:25:00,
2013-10-14 23:31:00,67.8,65.5,30.05,NW,319,0.0,4.0,92,0.00,,,0.00,0.0,meteohub,2013-10-15 03:31:00,
2013-10-14 23:37:00,67.8,65.1,30.06,NNW,339,1.0,3.0,91,0.00,,,0.00,0.0,meteohub,2013-10-15 03:37:00,
2013-10-14 23:42:00,67.8,65.1,30.05,ENE,67,0.0,3.0,91,0.00,,,0.00,0.0,meteohub,2013-10-15 03:42:00,
2013-10-14 23:47:00,67.8,65.1,30.05,NNE,30,1.0,4.0,91,0.00,,,0.00,0.0,meteohub,2013-10-15 03:47:00,
2013-10-14 23:52:00,67.8,65.1,30.05,North,0,1.0,4.0,91,0.00,,,0.00,0.0,meteohub,2013-10-15 03:52:00,
2013-10-14 23:57:00,67.8,65.1,30.04,WSW,246,2.0,4.0,91,0.00,,,0.00,0.0,meteohub,2013-10-15 03:57:00,